Terminal Aerodrome Forecast
Issued by NWS

Home | Current Version | Previous Version | Text Only | Print | Product List | Glossary On
Versions: 1 2 3 4 5 6 7 8 9 10 11 12 13 14
000
FTUS45 KABQ 172300
TAFAEG
TAF
KAEG 172329Z 1800/1824 06005KT P6SM SCT050 BKN100
     FM180200 09005KT P6SM VCSH SCT025 OVC050
     FM180600 09005KT P6SM SCT025 OVC040
     FM181900 15010G20KT P6SM VCSH SCT015 OVC040=

USA.gov is the U.S. government's official web portal to all federal, state and local government web resources and services.